createdAt,value
2019-05-02T00:01:02.483Z,49.30
2019-05-02T00:03:41.034Z,49.20
2019-05-02T00:06:10.326Z,49.30
2019-05-02T00:08:42.858Z,49.30
2019-05-02T00:11:14.917Z,49.30
2019-05-02T00:13:46.884Z,49.30
2019-05-02T00:16:18.889Z,49.30
2019-05-02T00:18:51.874Z,49.40
2019-05-02T00:21:24.039Z,49.30
2019-05-02T00:23:59.315Z,49.30
2019-05-02T00:26:30.812Z,49.30
2019-05-02T00:29:02.909Z,49.00
2019-05-02T00:31:37.283Z,49.40
2019-05-02T00:34:10.046Z,49.40
2019-05-02T00:36:42.905Z,49.40
2019-05-02T00:39:15.226Z,49.50
2019-05-02T00:41:47.889Z,49.40
2019-05-02T00:44:19.876Z,49.40
2019-05-02T00:46:52.805Z,49.40
2019-05-02T00:49:24.880Z,49.40
2019-05-02T00:52:01.272Z,49.40
2019-05-02T00:54:30.881Z,49.40
2019-05-02T00:57:03.090Z,49.00
2019-05-02T00:59:37.715Z,49.40
2019-05-02T01:02:19.855Z,49.40
2019-05-02T01:04:51.853Z,49.00
2019-05-02T01:07:25.601Z,49.50
2019-05-02T01:09:58.559Z,49.50
2019-05-02T01:12:30.839Z,49.50
2019-05-02T01:15:03.435Z,49.20
2019-05-02T01:17:36.828Z,49.40
2019-05-02T01:20:09.861Z,49.10
2019-05-02T01:22:42.326Z,49.50
2019-05-02T01:25:16.980Z,49.50
2019-05-02T01:28:12.641Z,49.50
2019-05-02T01:31:07.516Z,49.50
2019-05-02T01:33:46.532Z,49.50
2019-05-02T01:36:22.829Z,49.60
2019-05-02T01:38:54.921Z,49.50
2019-05-02T01:41:29.214Z,49.60
2019-05-02T01:44:01.635Z,49.50
2019-05-02T01:46:33.897Z,49.60
2019-05-02T01:49:06.896Z,49.70
2019-05-02T01:51:41.966Z,49.60
2019-05-02T01:54:12.838Z,49.60
2019-05-02T01:56:44.839Z,49.30
2019-05-02T01:59:17.019Z,49.70
2019-05-02T02:01:53.210Z,49.60
2019-05-02T02:04:23.847Z,49.60
2019-05-02T02:06:55.955Z,49.60
2019-05-02T02:09:27.887Z,49.70
2019-05-02T02:11:59.791Z,49.70
2019-05-02T02:14:32.373Z,49.70
2019-05-02T02:17:04.874Z,49.60
2019-05-02T02:19:43.542Z,49.60
2019-05-02T02:22:33.814Z,50.00
2019-05-02T02:25:22.656Z,49.70
2019-05-02T02:27:59.534Z,49.20
2019-05-02T02:30:28.865Z,49.20
2019-05-02T02:33:07.517Z,49.60
2019-05-02T02:35:35.007Z,49.60
2019-05-02T02:38:07.015Z,49.20
2019-05-02T02:40:39.333Z,49.60
2019-05-02T02:43:32.434Z,49.70
2019-05-02T02:48:40.745Z,49.60
2019-05-02T02:51:22.253Z,49.80
2019-05-02T02:53:44.873Z,49.80
2019-05-02T02:56:16.865Z,49.60
2019-05-02T02:58:48.821Z,49.80
2019-05-02T03:01:28.336Z,49.70
2019-05-02T03:03:54.880Z,49.80
2019-05-02T03:06:26.871Z,49.40
2019-05-02T03:08:59.322Z,49.80
2019-05-02T03:11:39.319Z,49.80
2019-05-02T03:14:18.589Z,49.80
2019-05-02T03:16:50.891Z,49.90
2019-05-02T03:19:23.144Z,49.50
2019-05-02T03:22:01.158Z,49.90
2019-05-02T03:27:02.328Z,49.80
2019-05-02T03:29:41.108Z,49.90
2019-05-02T03:32:17.028Z,49.90
2019-05-02T03:34:48.895Z,50.00
2019-05-02T03:37:18.349Z,49.50
2019-05-02T03:39:57.413Z,49.90
2019-05-02T03:42:25.002Z,49.90
2019-05-02T03:45:04.089Z,49.50
2019-05-02T03:47:36.831Z,50.00
2019-05-02T03:50:08.622Z,49.50
2019-05-02T03:52:43.440Z,49.70
2019-05-02T03:55:13.329Z,49.50
2019-05-02T03:57:45.890Z,49.50
2019-05-02T04:00:21.376Z,50.00
2019-05-02T04:02:59.193Z,50.00
2019-05-02T04:05:26.831Z,50.00
2019-05-02T04:07:58.816Z,49.60
2019-05-02T04:11:26.347Z,50.10
2019-05-02T04:13:58.875Z,50.10
2019-05-02T04:16:31.811Z,50.20
2019-05-02T04:19:05.040Z,50.10
2019-05-02T04:21:37.613Z,50.10
2019-05-02T04:24:15.036Z,50.20
2019-05-02T04:26:51.997Z,49.70
2019-05-02T04:29:15.794Z,50.20
2019-05-02T04:31:47.765Z,50.20
2019-05-02T04:34:18.617Z,50.20
2019-05-02T04:37:00.018Z,50.10
2019-05-02T04:39:23.751Z,49.70
2019-05-02T04:41:54.600Z,50.10
2019-05-02T04:44:29.863Z,50.10
2019-05-02T04:47:10.024Z,49.70
2019-05-02T04:49:35.982Z,50.10
2019-05-02T04:52:11.287Z,50.00
2019-05-02T04:54:40.269Z,50.00
2019-05-02T04:57:11.854Z,50.00
2019-05-02T04:59:43.868Z,50.10
2019-05-02T05:02:31.073Z,50.10
2019-05-02T05:04:58.108Z,50.00
2019-05-02T05:07:31.043Z,50.00
2019-05-02T05:10:03.634Z,49.60
2019-05-02T05:12:39.961Z,50.00
2019-05-02T05:15:13.342Z,50.00
2019-05-02T05:17:42.746Z,50.00
2019-05-02T05:20:15.849Z,50.00
2019-05-02T05:22:47.934Z,49.90
2019-05-02T05:25:27.680Z,49.80
2019-05-02T05:28:05.683Z,49.70
2019-05-02T05:30:37.001Z,49.80
2019-05-02T05:33:07.640Z,49.70
2019-05-02T05:35:43.216Z,49.90
2019-05-02T05:38:13.297Z,49.60
2019-05-02T05:40:44.938Z,49.60
2019-05-02T05:43:20.348Z,49.60
2019-05-02T05:45:56.218Z,49.60
2019-05-02T05:48:23.700Z,49.60
2019-05-02T05:50:54.507Z,49.60
2019-05-02T05:53:28.064Z,49.60
2019-05-02T05:56:02.482Z,49.60
2019-05-02T05:58:33.311Z,49.60
2019-05-02T06:01:09.336Z,49.60
2019-05-02T06:03:41.976Z,49.60
2019-05-02T06:06:14.887Z,49.20
2019-05-02T06:08:49.195Z,49.60
2019-05-02T06:11:20.000Z,49.60
2019-05-02T06:13:52.753Z,49.50
2019-05-02T06:16:24.649Z,49.70
2019-05-02T06:18:56.333Z,49.50
2019-05-02T06:21:27.995Z,49.10
2019-05-02T06:23:59.732Z,49.90
2019-05-02T06:26:30.645Z,49.50
2019-05-02T06:29:02.303Z,49.50
2019-05-02T06:31:38.233Z,49.40
2019-05-02T06:34:08.407Z,49.50
2019-05-02T06:41:42.855Z,48.60
2019-05-02T06:44:18.435Z,49.20
2019-05-02T06:46:48.298Z,49.30
2019-05-02T06:49:24.325Z,49.40
2019-05-02T06:51:56.358Z,49.40
2019-05-02T06:54:26.755Z,49.40
2019-05-02T06:56:57.459Z,49.40
2019-05-02T06:59:29.310Z,49.40
2019-05-02T07:02:01.312Z,49.40
2019-05-02T07:04:33.644Z,49.30
2019-05-02T07:07:04.445Z,49.30
2019-05-02T07:09:41.088Z,49.00
2019-05-02T07:12:14.281Z,49.30
2019-05-02T07:14:45.793Z,49.30
2019-05-02T07:17:32.280Z,49.30
2019-05-02T07:20:03.903Z,49.10
2019-05-02T07:22:38.618Z,48.80
2019-05-02T07:25:11.313Z,49.20
2019-05-02T07:27:42.957Z,48.80
2019-05-02T07:30:14.876Z,49.10
2019-05-02T07:32:46.771Z,49.00
2019-05-02T07:35:19.137Z,49.00
2019-05-02T07:37:50.793Z,49.00
2019-05-02T07:40:22.456Z,49.00
2019-05-02T07:42:54.628Z,48.90
2019-05-02T07:45:26.779Z,49.00
2019-05-02T07:48:01.356Z,48.50
2019-05-02T07:50:31.750Z,48.90
2019-05-02T07:53:04.450Z,48.80
2019-05-02T07:55:40.647Z,48.70
2019-05-02T07:58:09.773Z,48.70
2019-05-02T08:00:40.619Z,48.70
2019-05-02T08:03:12.790Z,48.60
2019-05-02T08:05:44.749Z,48.40
2019-05-02T08:08:15.510Z,48.50
2019-05-02T08:10:47.316Z,48.50
2019-05-02T08:13:19.462Z,48.10
2019-05-02T08:15:52.413Z,49.10
2019-05-02T08:18:25.247Z,47.90
2019-05-02T08:20:57.703Z,47.80
2019-05-02T08:23:28.618Z,48.30
2019-05-02T08:26:00.330Z,48.20
2019-05-02T08:28:46.950Z,47.80
2019-05-02T08:31:18.912Z,48.30
2019-05-02T08:33:51.378Z,48.20
2019-05-02T08:36:23.347Z,47.80
2019-05-02T08:38:55.493Z,48.80
2019-05-02T08:41:27.729Z,48.10
2019-05-02T08:43:59.794Z,47.60
2019-05-02T08:46:31.579Z,48.00
2019-05-02T08:49:03.306Z,47.90
2019-05-02T08:51:34.831Z,47.50
2019-05-02T08:54:06.470Z,47.90
2019-05-02T08:56:38.297Z,47.80
2019-05-02T08:59:09.817Z,47.80
2019-05-02T09:01:44.729Z,47.70
2019-05-02T09:04:14.800Z,47.60
2019-05-02T09:06:46.457Z,47.50
2019-05-02T09:09:22.605Z,47.50
2019-05-02T09:12:07.115Z,47.40
2019-05-02T09:14:25.293Z,47.70
2019-05-02T09:17:00.377Z,47.30
2019-05-02T09:19:34.518Z,47.20
2019-05-02T09:22:07.634Z,47.20
2019-05-02T09:24:38.402Z,47.20
2019-05-02T09:27:11.799Z,47.20
2019-05-02T09:29:45.938Z,47.20
2019-05-02T09:32:22.770Z,47.10
2019-05-02T09:34:51.834Z,47.10
2019-05-02T09:37:24.372Z,47.20
2019-05-02T09:39:56.062Z,47.20
2019-05-02T09:42:27.765Z,47.30
2019-05-02T09:44:58.596Z,47.20
2019-05-02T09:47:33.146Z,47.20
2019-05-02T09:50:13.057Z,46.90
2019-05-02T09:52:44.725Z,47.30
2019-05-02T09:55:17.441Z,47.30
2019-05-02T09:57:49.304Z,47.30
2019-05-02T10:00:32.359Z,47.30
2019-05-02T10:03:03.748Z,47.30
2019-05-02T10:05:34.457Z,46.90
2019-05-02T10:08:08.088Z,47.10
2019-05-02T10:10:44.239Z,47.10
2019-05-02T10:13:14.310Z,47.10
2019-05-02T10:15:45.997Z,47.10
2019-05-02T10:18:19.643Z,47.00
2019-05-02T10:20:52.430Z,46.90
2019-05-02T10:23:23.665Z,46.90
2019-05-02T10:25:54.434Z,46.60
2019-05-02T10:28:26.312Z,46.60
2019-05-02T10:30:57.968Z,46.90
2019-05-02T10:33:33.669Z,46.90
2019-05-02T10:36:03.782Z,46.90
2019-05-02T10:38:34.471Z,46.90
2019-05-02T10:41:06.328Z,46.90
2019-05-02T10:43:38.303Z,46.80
2019-05-02T10:46:37.723Z,46.80
2019-05-02T10:49:16.261Z,46.80
2019-05-02T10:51:49.592Z,47.40
2019-05-02T10:54:23.090Z,46.60
2019-05-02T10:56:55.059Z,46.60
2019-05-02T10:59:26.766Z,46.60
2019-05-02T11:02:10.010Z,46.60
2019-05-02T11:04:46.305Z,46.70
2019-05-02T11:07:22.789Z,46.60
2019-05-02T11:09:52.568Z,46.60
2019-05-02T11:12:41.998Z,46.60
2019-05-02T11:15:26.851Z,46.20
2019-05-02T11:17:58.772Z,46.60
2019-05-02T11:20:31.861Z,46.60
2019-05-02T11:23:03.730Z,46.50
2019-05-02T11:25:35.732Z,46.50
2019-05-02T11:28:07.200Z,46.40
2019-05-02T11:30:41.956Z,46.40
2019-05-02T11:33:13.760Z,46.40
2019-05-02T11:35:49.116Z,46.30
2019-05-02T11:38:18.419Z,46.30
2019-05-02T11:40:52.058Z,46.30
2019-05-02T11:43:24.306Z,46.40
2019-05-02T11:46:02.536Z,46.30
2019-05-02T11:48:31.881Z,46.20
2019-05-02T11:51:07.418Z,46.90
2019-05-02T11:53:36.809Z,46.30
2019-05-02T11:56:10.999Z,46.20
2019-05-02T11:58:48.072Z,46.20
2019-05-02T12:01:19.303Z,46.10
2019-05-02T12:03:52.468Z,46.30
2019-05-02T12:06:24.398Z,46.20
2019-05-02T12:08:56.066Z,45.70
2019-05-02T12:11:27.790Z,46.20
2019-05-02T12:13:59.373Z,46.20
2019-05-02T12:16:32.276Z,46.20
2019-05-02T12:19:11.784Z,46.20
2019-05-02T12:21:39.342Z,46.20
2019-05-02T12:24:12.686Z,46.20
2019-05-02T12:26:46.548Z,46.20
2019-05-02T12:29:21.736Z,46.10
2019-05-02T12:31:56.415Z,46.20
2019-05-02T12:34:26.423Z,46.10
2019-05-02T12:36:58.048Z,46.10
2019-05-02T12:39:31.630Z,46.10
2019-05-02T12:42:03.826Z,46.20
2019-05-02T12:44:35.742Z,46.10
2019-05-02T12:47:06.554Z,46.90
2019-05-02T12:49:38.298Z,46.10
2019-05-02T12:52:09.866Z,46.20
2019-05-02T12:54:41.750Z,46.30
2019-05-02T12:57:13.499Z,46.20
2019-05-02T12:59:45.297Z,46.30
2019-05-02T13:02:25.575Z,46.30
2019-05-02T13:04:57.737Z,46.20
2019-05-02T13:07:28.442Z,46.00
2019-05-02T13:10:02.221Z,46.40
2019-05-02T13:12:36.318Z,46.40
2019-05-02T13:15:08.292Z,46.50
2019-05-02T13:17:45.975Z,46.40
2019-05-02T13:20:15.442Z,46.50
2019-05-02T13:23:05.419Z,46.10
2019-05-02T13:25:37.431Z,46.60
2019-05-02T13:28:09.058Z,46.60
2019-05-02T13:30:51.639Z,46.60
2019-05-02T13:33:37.755Z,46.60
2019-05-02T13:36:10.265Z,46.60
2019-05-02T13:38:42.335Z,46.70
2019-05-02T13:41:14.336Z,46.70
2019-05-02T13:43:48.338Z,46.70
2019-05-02T13:46:23.307Z,46.70
2019-05-02T13:48:55.064Z,46.70
2019-05-02T13:51:26.745Z,46.80
2019-05-02T13:54:02.257Z,46.80
2019-05-02T13:56:53.031Z,46.80
2019-05-02T13:59:24.753Z,46.50
2019-05-02T14:01:55.659Z,46.80
2019-05-02T14:04:26.429Z,46.80
2019-05-02T14:06:58.062Z,46.40
2019-05-02T14:09:58.046Z,46.80
2019-05-02T14:12:44.488Z,46.80
2019-05-02T14:15:17.303Z,46.50
2019-05-02T14:17:48.897Z,46.70
2019-05-02T14:20:22.710Z,46.40
2019-05-02T14:22:54.609Z,46.20
2019-05-02T14:25:26.337Z,45.90
2019-05-02T14:27:58.289Z,45.40
2019-05-02T14:30:37.042Z,45.50
2019-05-02T14:33:06.990Z,45.40
2019-05-02T14:35:38.744Z,45.20
2019-05-02T14:38:13.096Z,45.10
2019-05-02T14:41:05.409Z,45.10
2019-05-02T14:43:54.019Z,45.00
2019-05-02T14:46:34.297Z,45.00
2019-05-02T14:49:02.869Z,45.00
2019-05-02T14:51:36.637Z,45.00
2019-05-02T14:54:09.298Z,45.00
2019-05-02T14:57:05.735Z,45.00
2019-05-02T14:59:37.363Z,45.00
2019-05-02T15:02:13.153Z,45.00
2019-05-02T15:04:48.828Z,45.00
2019-05-02T15:07:24.807Z,45.10
2019-05-02T15:09:57.270Z,45.70
2019-05-02T15:12:27.321Z,44.70
2019-05-02T15:15:00.053Z,45.10
2019-05-02T15:17:33.645Z,45.10
2019-05-02T15:20:07.329Z,45.30
2019-05-02T15:22:39.811Z,45.50
2019-05-02T15:25:15.849Z,45.80
2019-05-02T15:27:49.953Z,45.60
2019-05-02T15:30:21.322Z,45.20
2019-05-02T15:33:04.262Z,45.70
2019-05-02T15:36:03.183Z,46.00
2019-05-02T15:38:32.403Z,45.90
2019-05-02T15:41:07.823Z,46.30
2019-05-02T15:43:39.367Z,46.20
2019-05-02T15:46:15.778Z,46.10
2019-05-02T15:48:46.850Z,45.90
2019-05-02T15:51:19.299Z,45.70
2019-05-02T15:54:08.510Z,46.20
2019-05-02T15:56:59.974Z,46.30
2019-05-02T15:59:44.483Z,46.30
2019-05-02T16:02:17.504Z,46.30
2019-05-02T16:04:47.851Z,46.40
2019-05-02T16:07:22.344Z,46.50
2019-05-02T16:09:59.245Z,46.50
2019-05-02T16:12:32.215Z,46.50
2019-05-02T16:15:07.204Z,46.90
2019-05-02T16:17:35.736Z,46.60
2019-05-02T16:20:13.789Z,46.60
2019-05-02T16:23:05.323Z,46.70
2019-05-02T16:25:38.328Z,46.80
2019-05-02T16:28:12.702Z,46.90
2019-05-02T16:30:47.604Z,46.90
2019-05-02T16:33:20.847Z,46.90
2019-05-02T16:35:54.566Z,47.10
2019-05-02T16:38:26.740Z,47.00
2019-05-02T16:41:02.276Z,47.00
2019-05-02T16:43:34.822Z,47.10
2019-05-02T16:46:11.903Z,47.20
2019-05-02T16:48:42.666Z,47.10
2019-05-02T16:51:30.029Z,47.20
2019-05-02T16:53:48.314Z,47.10
2019-05-02T16:56:22.278Z,47.20
2019-05-02T16:58:54.856Z,47.20
2019-05-02T17:01:28.570Z,47.00
2019-05-02T17:04:05.197Z,47.10
2019-05-02T17:06:40.313Z,46.70
2019-05-02T17:09:24.152Z,47.20
2019-05-02T17:11:57.311Z,47.20
2019-05-02T17:14:31.700Z,47.20
2019-05-02T17:17:03.921Z,47.20
2019-05-02T17:19:36.800Z,47.30
2019-05-02T17:22:09.323Z,47.20
2019-05-02T17:24:41.921Z,47.30
2019-05-02T17:27:20.519Z,47.20
2019-05-02T17:29:54.264Z,47.30
2019-05-02T17:32:28.824Z,46.90
2019-05-02T17:35:02.719Z,47.30
2019-05-02T17:37:34.415Z,47.30
2019-05-02T17:40:06.928Z,47.30
2019-05-02T17:42:44.476Z,47.30
2019-05-02T17:45:17.390Z,47.40
2019-05-02T17:47:49.875Z,47.00
2019-05-02T17:50:35.704Z,47.40
2019-05-02T17:53:07.283Z,47.40
2019-05-02T17:55:40.784Z,47.10
2019-05-02T17:58:16.597Z,47.50
2019-05-02T18:01:00.726Z,47.10
2019-05-02T18:03:35.427Z,47.80
2019-05-02T18:06:07.609Z,47.10
2019-05-02T18:08:41.738Z,47.10
2019-05-02T18:11:14.549Z,47.50
2019-05-02T18:13:47.331Z,47.50
2019-05-02T18:16:21.663Z,47.80
2019-05-02T18:18:53.469Z,47.50
2019-05-02T18:21:28.699Z,47.60
2019-05-02T18:24:02.450Z,47.60
2019-05-02T18:26:33.879Z,47.30
2019-05-02T18:29:06.935Z,47.20
2019-05-02T18:31:47.131Z,47.60
2019-05-02T18:34:23.684Z,47.60
2019-05-02T18:36:49.537Z,47.50
2019-05-02T18:39:22.208Z,47.30
2019-05-02T18:41:55.107Z,47.30
2019-05-02T18:44:27.924Z,47.80
2019-05-02T18:47:02.290Z,47.80
2019-05-02T18:49:34.522Z,47.80
2019-05-02T18:52:07.229Z,47.80
2019-05-02T18:54:43.928Z,47.80
2019-05-02T18:57:17.198Z,47.90
2019-05-02T18:59:51.875Z,47.80
2019-05-02T19:02:26.320Z,47.90
2019-05-02T19:04:56.270Z,47.80
2019-05-02T19:07:35.645Z,47.50
2019-05-02T19:10:07.422Z,47.90
2019-05-02T19:12:41.920Z,47.50
2019-05-02T19:15:15.492Z,47.90
2019-05-02T19:17:50.191Z,48.00
2019-05-02T19:21:05.017Z,48.00
2019-05-02T19:23:38.103Z,48.00
2019-05-02T19:26:14.656Z,48.10
2019-05-02T19:29:14.034Z,48.10
2019-05-02T19:31:52.490Z,47.80
2019-05-02T19:34:26.783Z,48.10
2019-05-02T19:37:03.105Z,48.20
2019-05-02T19:39:32.862Z,48.20
2019-05-02T19:42:04.882Z,48.20
2019-05-02T19:44:37.995Z,48.30
2019-05-02T19:47:15.718Z,48.30
2019-05-02T19:49:47.390Z,48.30
2019-05-02T19:52:18.865Z,48.40
2019-05-02T19:54:51.883Z,48.00
2019-05-02T19:57:26.424Z,48.40
2019-05-02T20:00:02.832Z,48.40
2019-05-02T20:02:37.507Z,48.40
2019-05-02T20:05:16.367Z,48.00
2019-05-02T20:07:45.106Z,48.40
2019-05-02T20:10:19.688Z,48.40
2019-05-02T20:12:52.762Z,48.40
2019-05-02T20:15:27.041Z,48.20
2019-05-02T20:18:04.541Z,48.60
2019-05-02T20:21:23.269Z,48.60
2019-05-02T20:23:51.775Z,48.50
2019-05-02T20:26:24.272Z,48.60
2019-05-02T20:28:56.940Z,48.60
2019-05-02T20:31:29.565Z,48.70
2019-05-02T20:34:02.524Z,48.70
2019-05-02T20:36:33.709Z,48.70
2019-05-02T20:39:07.518Z,48.80
2019-05-02T20:41:41.948Z,48.80
2019-05-02T20:44:14.840Z,48.80
2019-05-02T20:46:47.342Z,48.80
2019-05-02T20:49:20.900Z,48.90
2019-05-02T20:51:54.080Z,48.80
2019-05-02T20:54:26.863Z,48.80
2019-05-02T20:56:59.339Z,48.90
2019-05-02T20:59:32.301Z,48.90
2019-05-02T21:02:04.901Z,48.90
2019-05-02T21:04:37.289Z,49.00
2019-05-02T21:07:22.105Z,48.90
2019-05-02T21:10:12.501Z,49.00
2019-05-02T21:12:43.714Z,49.00
2019-05-02T21:15:14.757Z,49.00
2019-05-02T21:17:46.855Z,49.00
2019-05-02T21:20:18.880Z,49.10
2019-05-02T21:22:52.780Z,49.40
2019-05-02T21:25:24.840Z,49.10
2019-05-02T21:27:58.332Z,49.10
2019-05-02T21:30:32.233Z,49.10
2019-05-02T21:33:04.832Z,49.10
2019-05-02T21:35:36.853Z,49.10
2019-05-02T21:38:09.345Z,49.10
2019-05-02T21:40:42.299Z,49.20
2019-05-02T21:43:15.041Z,49.20
2019-05-02T21:45:47.046Z,49.20
2019-05-02T21:48:19.379Z,49.20
2019-05-02T21:50:57.681Z,49.10
2019-05-02T21:53:54.201Z,49.10
2019-05-02T21:56:21.904Z,48.70
2019-05-02T21:59:07.322Z,49.10
2019-05-02T22:02:02.407Z,49.10
2019-05-02T22:04:35.323Z,49.20
2019-05-02T22:07:08.015Z,49.20
2019-05-02T22:09:41.646Z,49.10
2019-05-02T22:12:16.373Z,49.10
2019-05-02T22:14:48.907Z,49.10
2019-05-02T22:17:21.588Z,49.10
2019-05-02T22:19:53.884Z,49.20
2019-05-02T22:22:25.876Z,49.10
2019-05-02T22:24:58.293Z,49.10
2019-05-02T22:27:32.466Z,49.10
2019-05-02T22:30:04.895Z,49.10
2019-05-02T22:32:37.040Z,49.10
2019-05-02T22:35:09.865Z,49.10
2019-05-02T22:37:43.584Z,49.20
2019-05-02T22:40:16.785Z,49.20
2019-05-02T22:42:48.123Z,49.40
2019-05-02T22:45:21.767Z,49.10
2019-05-02T22:47:53.863Z,49.10
2019-05-02T22:50:25.901Z,49.10
2019-05-02T22:52:58.497Z,49.00
2019-05-02T22:55:31.997Z,49.10
2019-05-02T22:58:04.364Z,49.10
2019-05-02T23:00:36.865Z,49.90
2019-05-02T23:03:09.024Z,49.10
2019-05-02T23:05:42.151Z,49.10
2019-05-02T23:08:15.019Z,48.90
2019-05-02T23:10:46.862Z,49.10
2019-05-02T23:13:18.884Z,49.20
2019-05-02T23:15:52.159Z,49.10
2019-05-02T23:18:24.905Z,49.10
2019-05-02T23:20:56.873Z,49.10
2019-05-02T23:23:29.945Z,49.10
2019-05-02T23:26:22.439Z,49.10
2019-05-02T23:28:55.337Z,49.10
2019-05-02T23:31:28.337Z,48.80
2019-05-02T23:34:02.030Z,49.10
2019-05-02T23:36:35.326Z,49.10
2019-05-02T23:39:09.924Z,49.10
2019-05-02T23:41:42.913Z,49.10
2019-05-02T23:44:15.045Z,49.10
2019-05-02T23:46:47.542Z,49.10
2019-05-02T23:49:21.858Z,49.20
2019-05-02T23:51:52.792Z,49.20
2019-05-02T23:54:27.053Z,49.10
2019-05-02T23:56:59.081Z,49.20
2019-05-02T23:59:31.818Z,49.10
